Time;durP1;ratioP1;P1;durP2;ratioP2;P2;SDS_P1;SDS_P2;PMS_P1;PMS_P2;Temp;Humidity;BMP_temperature;BMP_pressure;BME280_temperature;BME280_humidity;BME280_pressure;Samples;Min_cycle;Max_cycle;Signal;HPM_P1;HPM_P2
2020/12/01 00:01:48;;;;;;;2.92;1.80;;;;;;;6.09;64.20;102299.45;1774326;80;21133;-46
2020/12/01 00:04:16;;;;;;;2.22;2.02;;;;;;;5.96;64.63;102299.61;1772912;80;21160;-46
2020/12/01 00:06:45;;;;;;;2.22;1.80;;;;;;;6.01;64.54;102296.72;1757604;80;21613;-46
2020/12/01 00:09:14;;;;;;;2.52;2.12;;;;;;;6.04;64.63;102301.94;1774427;80;21545;-46
2020/12/01 00:11:42;;;;;;;2.10;1.90;;;;;;;6.04;64.61;102296.77;1774473;80;21545;-46
2020/12/01 00:14:10;;;;;;;2.50;1.92;;;;;;;6.04;64.70;102301.94;1772462;80;21593;-46
2020/12/01 00:16:39;;;;;;;2.20;2.00;;;;;;;6.05;64.58;102297.64;1771432;80;21283;-46
2020/12/01 00:19:07;;;;;;;2.33;1.65;;;;;;;6.06;64.56;102289.92;1771124;80;21177;-46
2020/12/01 00:21:35;;;;;;;2.62;2.05;;;;;;;6.05;64.39;102294.65;1771236;80;21191;-46
2020/12/01 00:24:03;;;;;;;3.27;2.22;;;;;;;6.03;64.51;102304.50;1771156;80;21289;-46
2020/12/01 00:26:32;;;;;;;2.08;1.90;;;;;;;6.04;64.35;102299.35;1772161;80;21179;-46
2020/12/01 00:29:00;;;;;;;1.60;1.47;;;;;;;6.05;64.15;102302.81;1774324;80;21283;-46
2020/12/01 00:31:28;;;;;;;2.17;1.98;;;;;;;6.03;64.22;102296.33;1774604;80;21152;-46
2020/12/01 00:33:57;;;;;;;2.50;2.30;;;;;;;5.99;64.41;102288.06;1770565;80;21172;-46
2020/12/01 00:36:26;;;;;;;2.15;1.95;;;;;;;6.04;64.28;102292.89;1761548;80;21307;-46
2020/12/01 00:38:54;;;;;;;2.87;2.05;;;;;;;6.00;64.16;102293.66;1773018;80;21628;-46
2020/12/01 00:41:23;;;;;;;2.25;2.02;;;;;;;6.03;64.25;102297.63;1774405;80;21117;-46
2020/12/01 00:43:51;;;;;;;2.40;2.20;;;;;;;6.04;64.25;102290.31;1774415;80;21159;-46
2020/12/01 00:46:19;;;;;;;2.42;2.22;;;;;;;6.05;64.26;102295.95;1772859;80;21172;-46
2020/12/01 00:48:47;;;;;;;3.10;2.02;;;;;;;6.05;64.13;102290.77;1772181;80;21301;-46
2020/12/01 00:51:16;;;;;;;2.45;2.22;;;;;;;6.05;64.17;102293.77;1773920;80;21148;-46
2020/12/01 00:53:44;;;;;;;3.55;2.12;;;;;;;6.07;64.21;102293.38;1774560;80;21335;-46
2020/12/01 00:56:14;;;;;;;3.08;2.50;;;;;;;5.49;65.85;102306.68;1774612;80;21140;-46
2020/12/01 00:58:42;;;;;;;3.30;2.15;;;;;;;5.39;66.25;102303.43;1773219;80;21145;-46
2020/12/01 01:01:12;;;;;;;3.95;2.83;;;;;;;5.38;66.46;102305.57;1763165;80;21212;-46
2020/12/01 01:03:41;;;;;;;4.70;2.72;;;;;;;5.18;66.98;102310.64;1757468;80;21160;-46
2020/12/01 01:06:11;;;;;;;3.17;2.87;;;;;;;5.06;67.50;102303.89;1771676;80;21193;-46
2020/12/01 01:08:39;;;;;;;3.83;2.77;;;;;;;5.03;67.64;102307.70;1771672;80;21546;-46
2020/12/01 01:11:08;;;;;;;3.30;2.83;;;;;;;5.02;67.60;102304.65;1767696;80;21113;-46
2020/12/01 01:13:38;;;;;;;4.00;3.30;;;;;;;5.00;67.61;102286.97;1774425;80;21160;-46
2020/12/01 01:16:08;;;;;;;3.80;2.87;;;;;;;4.99;67.77;102304.59;1774712;80;21195;-46
2020/12/01 01:18:36;;;;;;;5.90;3.30;;;;;;;4.99;67.88;102291.69;1778762;80;21168;-46
2020/12/01 01:21:05;;;;;;;5.30;3.33;;;;;;;5.00;67.66;102296.00;1772987;80;21155;-46
2020/12/01 01:23:33;;;;;;;5.33;3.33;;;;;;;4.97;67.56;102294.20;1773747;80;21164;-46
2020/12/01 01:26:01;;;;;;;5.90;3.15;;;;;;;4.97;67.68;102289.48;1774414;80;21291;-46
2020/12/01 01:28:30;;;;;;;5.08;3.67;;;;;;;4.97;67.77;102289.48;1774420;80;21137;-46
2020/12/01 01:30:59;;;;;;;4.35;3.95;;;;;;;4.95;67.74;102285.56;1764700;80;21184;-46
2020/12/01 01:33:27;;;;;;;4.12;3.60;;;;;;;4.94;67.67;102286.00;1766002;80;21310;-47
2020/12/01 01:35:55;;;;;;;4.90;4.03;;;;;;;4.94;67.87;102287.29;1773546;80;21132;-46
2020/12/01 01:38:23;;;;;;;4.50;3.75;;;;;;;4.95;68.01;102297.16;1759763;80;21176;-46
2020/12/01 01:40:57;;;;;;;4.62;3.83;;;;;;;4.97;67.88;102294.20;1771167;80;21133;-46
2020/12/01 01:43:25;;;;;;;5.80;4.70;;;;;;;4.97;67.83;102287.75;1766235;80;21585;-46
2020/12/01 01:45:53;;;;;;;4.78;4.00;;;;;;;4.95;67.62;102283.86;1766121;81;21585;-46
2020/12/01 01:48:30;;;;;;;4.50;4.10;;;;;;;4.92;67.54;102277.31;1765806;81;21137;-46
2020/12/01 01:51:03;;;;;;;4.37;3.95;;;;;;;4.88;67.66;102278.08;1743921;81;21597;-46
2020/12/01 01:53:33;;;;;;;5.35;4.28;;;;;;;4.87;67.70;102290.53;1731358;82;21147;-46
2020/12/01 01:56:05;;;;;;;5.35;4.72;;;;;;;4.87;67.71;102287.95;1737390;82;21132;-47
2020/12/01 01:58:38;;;;;;;5.45;4.60;;;;;;;4.89;67.80;102291.45;1712815;82;21099;-46
2020/12/01 02:01:13;;;;;;;6.28;5.12;;;;;;;4.90;67.73;102289.30;1735555;82;21563;-46
2020/12/01 02:03:50;;;;;;;6.50;5.55;;;;;;;4.89;67.66;102287.58;1736986;82;21092;-46
2020/12/01 02:06:28;;;;;;;6.20;5.05;;;;;;;4.92;67.41;102283.77;1736904;82;21170;-46
2020/12/01 02:09:06;;;;;;;6.83;5.58;;;;;;;4.93;67.46;102290.69;1736553;82;21146;-46
2020/12/01 02:11:43;;;;;;;8.35;5.80;;;;;;;4.98;67.36;102287.34;1770997;79;24340;-46
2020/12/01 02:14:34;;;;;;;5.60;4.78;;;;;;;4.93;67.44;102287.22;1734385;82;21212;-46
2020/12/01 02:17:31;;;;;;;5.72;4.97;;;;;;;4.94;67.52;102296.73;1734871;82;21129;-46
2020/12/01 02:20:10;;;;;;;5.90;5.22;;;;;;;4.97;67.24;102299.80;1734773;82;21152;-46
2020/12/01 02:22:39;;;;;;;6.67;5.70;;;;;;;4.95;67.34;102298.05;1738186;82;21153;-46
2020/12/01 02:25:07;;;;;;;7.22;6.05;;;;;;;4.94;67.29;102301.48;1734752;82;21160;-46
2020/12/01 02:27:35;;;;;;;8.08;5.83;;;;;;;4.93;67.24;102297.13;1740127;82;21564;-46
2020/12/01 02:30:04;;;;;;;8.15;6.15;;;;;;;4.92;67.26;102294.08;1740452;82;21141;-46
2020/12/01 02:32:32;;;;;;;8.48;5.50;;;;;;;4.92;67.34;102297.95;1744655;82;21302;-46
2020/12/01 02:35:03;;;;;;;9.25;6.55;;;;;;;4.93;67.30;102291.98;1741348;81;21137;-46
2020/12/01 02:37:31;;;;;;;7.37;6.58;;;;;;;4.94;67.25;102291.16;1740555;82;21181;-46
2020/12/01 02:40:00;;;;;;;8.25;6.00;;;;;;;5.16;66.47;102286.09;1744554;82;21133;-47
2020/12/01 02:42:28;;;;;;;6.55;5.65;;;;;;;4.98;67.04;102293.80;1738000;82;21121;-46
2020/12/01 02:44:57;;;;;;;8.58;6.22;;;;;;;5.01;66.99;102301.19;1735333;82;21144;-46
2020/12/01 02:47:27;;;;;;;8.43;5.87;;;;;;;5.15;66.60;102293.81;1737383;82;21177;-46
2020/12/01 02:49:55;;;;;;;8.93;6.25;;;;;;;5.21;66.16;102297.42;1734860;82;21558;-46
2020/12/01 02:52:24;;;;;;;8.18;6.65;;;;;;;5.19;66.05;102293.05;1739381;82;21200;-46
2020/12/01 02:54:54;;;;;;;7.72;6.05;;;;;;;5.17;66.12;102303.34;1737863;82;21322;-46
2020/12/01 02:57:22;;;;;;;8.80;6.70;;;;;;;5.17;66.17;102302.46;1738544;81;21157;-46
2020/12/01 02:59:50;;;;;;;6.90;6.10;;;;;;;5.14;66.28;102301.96;1737506;82;21168;-46
2020/12/01 03:02:18;;;;;;;9.68;7.28;;;;;;;5.16;66.21;102299.00;1736543;82;21146;-47
2020/12/01 03:04:46;;;;;;;10.13;7.12;;;;;;;5.10;66.21;102296.68;1742092;82;21476;-46
2020/12/01 03:07:14;;;;;;;8.95;7.12;;;;;;;5.10;66.42;102295.39;1731552;82;21298;-46
2020/12/01 03:09:42;;;;;;;9.00;6.83;;;;;;;5.10;66.48;102300.55;1730633;82;21125;-46
2020/12/01 03:12:11;;;;;;;9.95;6.78;;;;;;;5.09;66.59;102297.53;1729435;82;21184;-46
2020/12/01 03:14:39;;;;;;;7.87;6.97;;;;;;;5.08;66.52;102302.22;1716834;82;21350;-46
2020/12/01 03:17:08;;;;;;;12.35;7.17;;;;;;;5.08;66.75;102296.65;1724854;82;21181;-46
2020/12/01 03:19:36;;;;;;;7.62;6.08;;;;;;;5.09;66.80;102298.82;1727415;82;21192;-46
2020/12/01 03:22:04;;;;;;;11.80;7.30;;;;;;;5.11;66.76;102299.29;1722973;82;21164;-46
2020/12/01 03:24:32;;;;;;;11.38;7.60;;;;;;;5.13;66.59;102303.22;1729288;82;21149;-46
2020/12/01 03:27:01;;;;;;;10.53;7.70;;;;;;;5.12;66.65;102298.47;1718194;82;21161;-46
2020/12/01 03:29:29;;;;;;;9.15;6.85;;;;;;;5.09;66.67;102298.82;1713291;82;21472;-46
2020/12/01 03:31:57;;;;;;;8.73;7.40;;;;;;;4.95;67.32;102296.75;1724093;82;21177;-46
2020/12/01 03:34:25;;;;;;;10.23;7.72;;;;;;;4.93;67.23;102291.98;1724608;82;21782;-46
2020/12/01 03:36:55;;;;;;;11.03;7.65;;;;;;;4.92;67.22;102303.11;1725915;82;21642;-46
2020/12/01 03:39:23;;;;;;;9.03;7.55;;;;;;;4.98;66.96;102301.53;1732769;82;21168;-46
2020/12/01 03:41:51;;;;;;;9.75;7.70;;;;;;;5.04;66.81;102300.40;1727107;82;21160;-46
2020/12/01 03:44:20;;;;;;;10.63;7.08;;;;;;;5.07;66.62;102308.23;1724331;82;21161;-46
2020/12/01 03:46:50;;;;;;;10.60;7.47;;;;;;;4.97;66.90;102303.67;1724616;82;21180;-46
2020/12/01 03:49:18;;;;;;;9.23;8.00;;;;;;;4.95;66.89;102308.36;1724476;82;21153;-46
2020/12/01 03:51:46;;;;;;;9.38;8.00;;;;;;;5.04;66.70;102313.30;1726700;82;21177;-45
2020/12/01 03:54:15;;;;;;;12.68;8.20;;;;;;;5.06;66.50;102303.89;1727629;82;21346;-47
2020/12/01 03:56:44;;;;;;;11.93;7.65;;;;;;;5.04;66.39;102299.99;1719796;82;21319;-46
2020/12/01 03:59:12;;;;;;;9.35;6.83;;;;;;;5.04;66.57;102309.43;1731037;82;21561;-46
2020/12/01 04:01:40;;;;;;;11.00;8.55;;;;;;;5.05;66.57;102307.32;1723482;82;21354;-46
2020/12/01 04:04:08;;;;;;;9.33;7.60;;;;;;;5.08;66.41;102307.38;1723240;82;21196;-47
2020/12/01 04:06:36;;;;;;;11.18;8.18;;;;;;;5.08;66.51;102306.09;1728271;82;21169;-46
2020/12/01 04:09:05;;;;;;;8.98;7.42;;;;;;;5.10;66.53;102300.55;1721261;82;21145;-46
2020/12/01 04:11:33;;;;;;;10.18;8.33;;;;;;;5.08;66.34;102300.52;1726635;81;21165;-46
2020/12/01 04:14:01;;;;;;;11.83;8.65;;;;;;;5.08;66.40;102299.23;1721751;82;21148;-47
2020/12/01 04:16:29;;;;;;;10.15;7.90;;;;;;;5.09;66.25;102306.56;1724674;82;21130;-46
2020/12/01 04:18:58;;;;;;;11.53;8.50;;;;;;;5.08;66.28;102303.52;1723913;82;21153;-47
2020/12/01 04:21:26;;;;;;;9.45;8.20;;;;;;;5.07;66.35;102297.91;1726984;82;21145;-46
2020/12/01 04:23:54;;;;;;;12.43;8.85;;;;;;;5.04;66.44;102296.12;1724675;82;21161;-46
2020/12/01 04:26:22;;;;;;;13.18;8.88;;;;;;;5.02;66.21;102301.66;1718394;82;21149;-46
2020/12/01 04:28:51;;;;;;;10.53;8.48;;;;;;;4.96;66.25;102300.22;1731030;82;21586;-46
2020/12/01 04:31:20;;;;;;;10.48;8.85;;;;;;;4.95;66.53;102301.03;1718925;82;21522;-46
2020/12/01 04:33:49;;;;;;;12.37;8.98;;;;;;;4.96;66.58;102302.80;1727167;82;21141;-46
2020/12/01 04:36:17;;;;;;;11.75;8.88;;;;;;;4.98;66.53;102310.56;1724266;82;21137;-46
2020/12/01 04:38:45;;;;;;;11.48;9.18;;;;;;;4.99;66.64;102317.05;1724278;82;21303;-46
2020/12/01 04:41:13;;;;;;;10.05;8.55;;;;;;;5.01;66.40;102312.80;1725146;82;21193;-46
2020/12/01 04:43:47;;;;;;;11.80;9.70;;;;;;;4.99;66.33;102309.75;1705335;82;21145;-46
2020/12/01 04:46:19;;;;;;;10.48;8.70;;;;;;;5.00;66.52;102314.05;1727645;82;21558;-46
2020/12/01 04:48:52;;;;;;;15.00;11.18;;;;;;;4.99;66.54;102307.17;1691827;84;21201;-46
2020/12/01 04:52:02;;;;;;;12.33;9.98;;;;;;;5.01;66.35;102306.79;1693702;84;21581;-46
2020/12/01 04:55:02;;;;;;;12.43;10.13;;;;;;;4.99;66.46;102302.01;1674682;85;21153;-46
2020/12/01 04:57:58;;;;;;;12.07;9.58;;;;;;;5.01;66.60;102304.20;1693791;84;21314;-46
2020/12/01 05:00:43;;;;;;;12.03;9.88;;;;;;;4.99;66.75;102304.59;1688013;84;21358;-46
2020/12/01 05:03:59;;;;;;;14.18;9.80;;;;;;;5.01;66.47;102303.77;1772258;79;22953;-46
2020/12/01 05:07:03;;;;;;;12.00;8.75;;;;;;;4.94;66.41;102305.75;1740429;82;21609;-46
2020/12/01 05:09:38;;;;;;;12.28;10.70;;;;;;;4.92;66.69;102301.82;1734746;82;21577;-46
2020/12/01 05:12:16;;;;;;;12.88;10.50;;;;;;;4.86;66.68;102302.95;1736562;82;21109;-46
2020/12/01 05:14:57;;;;;;;12.75;10.28;;;;;;;4.86;66.86;102296.51;1689829;84;21203;-46
2020/12/01 05:17:36;;;;;;;13.40;10.38;;;;;;;4.89;66.73;102305.63;1694860;84;21186;-46
2020/12/01 05:20:06;;;;;;;13.78;10.68;;;;;;;4.86;66.93;102306.83;1636372;87;21434;-46
2020/12/01 05:22:36;;;;;;;11.48;10.25;;;;;;;4.85;66.90;102310.25;1683043;84;21167;-46
2020/12/01 05:25:04;;;;;;;10.60;9.30;;;;;;;4.84;66.90;102305.91;1646170;87;21193;-46
2020/12/01 05:27:35;;;;;;;12.82;9.85;;;;;;;4.86;67.00;102308.55;1680032;84;21175;-46
2020/12/01 05:30:22;;;;;;;12.53;9.73;;;;;;;4.88;66.81;102305.16;1662013;84;21185;-46
2020/12/01 05:33:07;;;;;;;14.05;9.58;;;;;;;4.91;66.82;102296.63;1770039;79;22914;-46
2020/12/01 05:35:35;;;;;;;12.65;10.30;;;;;;;4.86;66.86;102299.09;1734070;82;21326;-46
2020/12/01 05:38:10;;;;;;;11.63;10.43;;;;;;;4.87;66.78;102298.27;1737144;82;21120;-46
2020/12/01 05:40:48;;;;;;;12.00;10.55;;;;;;;4.85;66.79;102307.67;1657269;86;21334;-46
2020/12/01 05:43:36;;;;;;;12.30;9.80;;;;;;;4.89;66.99;102314.66;1812609;79;22802;-46
2020/12/01 05:46:31;;;;;;;13.38;10.13;;;;;;;4.86;67.12;102308.11;1772815;80;21113;-46
2020/12/01 05:49:04;;;;;;;12.05;10.25;;;;;;;4.88;67.00;102306.45;1775094;80;21140;-46
2020/12/01 05:51:42;;;;;;;12.65;9.85;;;;;;;4.92;67.04;102312.58;1777079;80;21148;-46
2020/12/01 05:54:23;;;;;;;13.58;9.98;;;;;;;4.91;66.73;102306.54;1777459;80;21124;-46
2020/12/01 05:56:52;;;;;;;11.68;10.05;;;;;;;4.91;66.80;102310.41;1777003;80;21581;-46
2020/12/01 05:59:23;;;;;;;12.82;10.20;;;;;;;4.91;66.58;102312.98;1774435;80;21164;-46
2020/12/01 06:01:54;;;;;;;9.80;8.75;;;;;;;4.91;66.66;102318.15;1780311;80;21196;-46
2020/12/01 06:04:25;;;;;;;11.00;9.10;;;;;;;4.91;66.84;102315.98;1780205;80;21155;-46
2020/12/01 06:07:12;;;;;;;10.72;9.40;;;;;;;4.91;66.73;102312.98;1771942;80;21193;-46
2020/12/01 06:09:56;;;;;;;13.18;10.35;;;;;;;4.94;66.54;102319.53;1778656;80;21325;-46
2020/12/01 06:12:51;;;;;;;11.50;8.90;;;;;;;4.94;66.46;102306.64;1780183;80;21211;-46
2020/12/01 06:15:21;;;;;;;13.80;10.43;;;;;;;4.94;66.34;102316.95;1772934;80;21116;-46
2020/12/01 06:18:21;;;;;;;11.20;9.73;;;;;;;4.89;66.58;102317.23;1780126;80;21152;-46
2020/12/01 06:21:05;;;;;;;12.13;9.28;;;;;;;4.92;66.55;102319.03;1694565;84;21160;-46
2020/12/01 06:23:51;;;;;;;12.78;10.50;;;;;;;5.00;66.42;102314.05;1810091;79;22831;-46
2020/12/01 06:27:00;;;;;;;9.35;8.35;;;;;;;4.97;66.24;102324.31;1775064;80;21180;-46
2020/12/01 06:30:18;;;;;;;11.22;9.68;;;;;;;4.95;66.33;102330.29;1787525;80;21108;-46
2020/12/01 06:33:10;;;;;;;11.78;10.10;;;;;;;4.93;66.29;102319.06;1728314;82;21633;-46
2020/12/01 06:36:10;;;;;;;13.10;10.58;;;;;;;4.93;66.57;102317.77;1816362;79;22923;-46
2020/12/01 06:39:03;;;;;;;12.65;9.70;;;;;;;4.91;66.57;102319.84;1780748;80;21541;-46
2020/12/01 06:41:37;;;;;;;12.53;8.88;;;;;;;4.92;66.70;102317.30;1787164;80;21145;-46
2020/12/01 06:44:05;;;;;;;12.80;9.68;;;;;;;4.96;66.63;102320.85;1769787;80;21557;-46
2020/12/01 06:46:46;;;;;;;12.75;10.25;;;;;;;4.99;66.55;102322.20;1720136;81;21123;-46
2020/12/01 06:49:20;;;;;;;12.20;9.88;;;;;;;5.01;66.45;102320.53;1715791;83;21125;-46
2020/12/01 06:51:51;;;;;;;11.43;8.98;;;;;;;5.03;66.59;102319.31;1653494;86;21172;-46
2020/12/01 06:54:19;;;;;;;12.13;9.70;;;;;;;5.04;66.63;102315.88;1718527;83;21129;-46
2020/12/01 06:57:02;;;;;;;12.58;9.78;;;;;;;5.08;66.36;102317.29;1718343;83;21661;-46
2020/12/01 06:59:31;;;;;;;12.68;10.30;;;;;;;5.08;66.22;102313.83;1708047;83;21286;-46
2020/12/01 07:02:09;;;;;;;11.78;10.00;;;;;;;5.07;66.33;102318.11;1718078;82;21330;-46
2020/12/01 07:04:43;;;;;;;13.53;10.88;;;;;;;5.13;66.32;102316.12;1771464;79;22931;-46
2020/12/01 07:07:28;;;;;;;12.45;10.03;;;;;;;5.08;66.28;102311.25;1739376;82;21140;-46
2020/12/01 07:09:56;;;;;;;14.10;11.08;;;;;;;5.07;66.38;102315.97;1672105;84;21629;-46
2020/12/01 07:12:35;;;;;;;15.98;11.08;;;;;;;5.07;66.33;102314.23;1674155;85;21180;-46
2020/12/01 07:15:09;;;;;;;14.85;11.38;;;;;;;5.10;66.20;102304.42;1678086;85;21180;-46
2020/12/01 07:18:01;;;;;;;13.30;10.68;;;;;;;5.23;66.16;102310.35;1820145;77;22885;-47
2020/12/01 07:20:40;;;;;;;13.58;10.55;;;;;;;5.12;66.33;102309.20;1733579;81;21176;-46
2020/12/01 07:23:25;;;;;;;13.48;10.48;;;;;;;4.97;66.72;102319.16;1725668;81;21156;-46
2020/12/01 07:26:18;;;;;;;14.80;10.78;;;;;;;4.94;66.72;102307.92;1725378;81;21156;-46
2020/12/01 07:28:54;;;;;;;13.18;10.98;;;;;;;5.17;66.04;102309.80;1726326;81;21583;-46
2020/12/01 07:31:28;;;;;;;14.10;11.53;;;;;;;5.26;65.66;102301.37;1725832;81;21200;-46
2020/12/01 07:34:07;;;;;;;13.62;10.40;;;;;;;5.14;66.14;102299.79;1725299;81;21250;-46
2020/12/01 07:36:41;;;;;;;14.25;11.08;;;;;;;5.20;66.04;102308.56;1723746;81;21132;-46
2020/12/01 07:39:20;;;;;;;10.90;9.35;;;;;;;5.22;66.02;102315.04;1726273;81;21167;-46
2020/12/01 07:42:00;;;;;;;13.93;10.78;;;;;;;5.30;65.69;102314.81;1811145;79;22921;-46
2020/12/01 07:44:31;;;;;;;14.13;10.93;;;;;;;5.28;65.76;102304.87;1789327;80;21159;-46
2020/12/01 07:47:15;;;;;;;14.65;11.03;;;;;;;5.31;65.38;102311.41;1776115;80;21136;-47
2020/12/01 07:49:43;;;;;;;15.72;12.82;;;;;;;5.29;65.23;102307.92;1769420;80;21156;-46
2020/12/01 07:52:34;;;;;;;13.35;10.85;;;;;;;5.28;65.33;102316.48;1720497;83;21154;-46
2020/12/01 07:55:06;;;;;;;14.33;10.93;;;;;;;5.27;65.33;102314.34;1730303;81;21169;-46
2020/12/01 07:57:34;;;;;;;;;;;;;;;5.28;65.37;102312.61;1712560;83;21207;-46
2020/12/01 08:00:04;;;;;;;14.07;11.30;;;;;;;5.23;65.35;102321.97;1727032;83;20128;-46
2020/12/01 08:02:34;;;;;;;13.85;10.58;;;;;;;5.22;65.50;102324.08;1751293;81;21133;-46
2020/12/01 08:05:06;;;;;;;15.35;11.60;;;;;;;4.95;66.55;102320.38;1739180;82;21151;-46
2020/12/01 08:07:35;;;;;;;;;;;;;;;4.93;66.67;102329.38;1749759;82;21166;-46
2020/12/01 08:10:07;;;;;;;15.03;11.55;;;;;;;4.92;66.64;102318.59;1753190;81;20122;-46
2020/12/01 08:12:46;;;;;;;14.93;10.78;;;;;;;4.91;66.77;102312.98;1658101;85;21191;-46
2020/12/01 08:15:20;;;;;;;13.43;10.45;;;;;;;4.94;66.78;102313.08;1664818;85;21191;-46
2020/12/01 08:17:54;;;;;;;13.95;10.45;;;;;;;4.98;66.86;102295.09;1810133;79;22818;-46
2020/12/01 08:20:24;;;;;;;15.40;10.85;;;;;;;4.97;66.97;102299.80;1776290;80;21267;-46
2020/12/01 08:22:57;;;;;;;13.48;11.15;;;;;;;4.98;66.93;102302.83;1777920;80;21203;-46
2020/12/01 08:25:28;;;;;;;13.35;10.20;;;;;;;4.99;66.89;102300.28;1776468;80;21204;-46
2020/12/01 08:28:20;;;;;;;15.05;11.95;;;;;;;5.00;66.87;102299.87;1776809;80;21160;-46
2020/12/01 08:31:11;;;;;;;12.03;10.27;;;;;;;4.98;66.87;102298.95;1786410;80;21187;-46
2020/12/01 08:34:08;;;;;;;14.23;10.25;;;;;;;4.98;66.98;102296.38;1780179;80;21861;-46
2020/12/01 08:36:43;;;;;;;16.00;12.33;;;;;;;5.00;67.11;102300.75;1769578;80;21140;-47
2020/12/01 08:39:55;;;;;;;16.93;10.82;;;;;;;5.03;66.97;102302.54;1774984;80;21731;-46
2020/12/01 08:42:49;;;;;;;13.72;10.95;;;;;;;5.04;66.97;102293.54;1775881;80;21156;-46
2020/12/01 08:45:44;;;;;;;14.10;11.22;;;;;;;5.06;66.94;102293.57;1776755;80;21148;-46
2020/12/01 08:48:41;;;;;;;14.25;10.90;;;;;;;5.07;66.92;102287.59;1774584;80;21180;-46
2020/12/01 08:51:23;;;;;;;12.60;10.13;;;;;;;5.07;66.82;102287.59;1730314;82;21303;-46
2020/12/01 08:54:14;;;;;;;16.55;11.78;;;;;;;5.13;66.92;102284.72;1771148;79;22887;-46
2020/12/01 08:57:07;;;;;;;14.10;11.25;;;;;;;5.10;66.86;102292.40;1741101;82;21299;-46
2020/12/01 08:59:46;;;;;;;16.00;10.53;;;;;;;5.10;66.91;102294.10;1687129;84;21211;-46
2020/12/01 09:02:16;;;;;;;13.78;10.58;;;;;;;5.13;66.83;102287.73;1686926;84;21240;-46
2020/12/01 09:04:45;;;;;;;13.83;11.13;;;;;;;5.14;66.77;102280.44;1687148;84;21303;-46
2020/12/01 09:07:21;;;;;;;15.58;11.18;;;;;;;5.16;66.82;102278.36;1686280;84;21287;-46
2020/12/01 09:09:53;;;;;;;16.97;11.70;;;;;;;5.18;66.94;102277.98;1678325;84;21145;-46
2020/12/01 09:12:41;;;;;;;16.45;11.28;;;;;;;5.22;66.79;102272.46;1678132;84;21181;-46
2020/12/01 09:23:24;;;;;;;13.88;10.85;;;;;;;5.41;66.45;102272.07;1770943;79;23001;-47
2020/12/01 09:25:53;;;;;;;17.05;11.90;;;;;;;5.40;66.35;102266.47;1713805;83;21672;-46
2020/12/01 09:28:25;;;;;;;17.32;13.05;;;;;;;5.41;66.31;102269.48;1711859;83;21176;-46
2020/12/01 09:31:02;;;;;;;16.02;12.18;;;;;;;5.41;66.22;102254.00;1717680;83;21216;-46
2020/12/01 09:33:30;;;;;;;16.05;11.63;;;;;;;5.41;66.34;102256.58;1704157;83;21211;-46
2020/12/01 09:35:58;;;;;;;15.60;11.70;;;;;;;5.43;66.48;102252.33;1717735;83;21150;-50
2020/12/01 09:38:27;;;;;;;16.90;11.33;;;;;;;5.44;66.43;102243.77;1718157;83;21161;-46
2020/12/01 09:40:55;;;;;;;17.85;12.93;;;;;;;5.45;66.25;102235.16;1717727;83;21208;-47
2020/12/01 09:45:55;;;;;;;18.55;12.20;;;;;;;5.42;66.46;102224.78;1714249;83;21192;-46
2020/12/01 09:48:31;;;;;;;16.37;12.18;;;;;;;5.42;66.36;102232.53;1711761;83;21321;-47
2020/12/01 09:51:00;;;;;;;14.38;10.98;;;;;;;5.38;66.45;102228.98;1714746;83;21109;-47
2020/12/01 10:07:41;;;;;;;21.68;14.87;;;;;;;5.45;66.71;102242.91;1717826;83;21160;-47
2020/12/01 10:10:25;;;;;;;16.95;12.68;;;;;;;5.48;66.67;102241.70;1714364;83;21164;-47
2020/12/01 10:12:57;;;;;;;21.25;12.10;;;;;;;5.51;66.52;102243.05;1714329;83;21403;-47
2020/12/01 10:18:34;;;;;;;20.97;14.80;;;;;;;5.50;66.46;102227.11;1771636;79;22949;-47
2020/12/01 10:26:48;;;;;;;22.48;14.23;;;;;;;5.46;66.67;102231.76;1747303;82;21169;-46
2020/12/01 10:34:48;;;;;;;23.12;13.68;;;;;;;5.46;66.66;102230.02;1732198;82;21160;-47
2020/12/01 10:37:13;;;;;;;20.10;13.53;;;;;;;5.44;66.88;102234.28;1740346;82;21275;-47
2020/12/01 10:39:41;;;;;;;23.57;14.43;;;;;;;5.45;66.94;102232.17;1731986;82;21156;-47
2020/12/01 10:42:10;;;;;;;22.00;14.38;;;;;;;5.47;67.01;102233.48;1735169;82;21176;-47
2020/12/01 10:44:39;;;;;;;22.00;14.90;;;;;;;5.48;67.17;102228.34;1734794;82;21145;-47
2020/12/01 10:47:07;;;;;;;18.20;14.28;;;;;;;5.51;67.13;102224.97;1739820;82;21149;-47
2020/12/01 10:49:36;;;;;;;20.02;14.30;;;;;;;5.52;67.10;102228.02;1737969;82;21307;-47
2020/12/01 10:52:04;;;;;;;26.10;16.60;;;;;;;5.54;67.13;102225.05;1738889;82;21121;-47
2020/12/01 10:54:32;;;;;;;21.95;15.53;;;;;;;5.56;67.06;102228.09;1743884;82;21156;-47
2020/12/01 10:57:00;;;;;;;21.50;14.75;;;;;;;5.58;67.03;102230.33;1737143;82;21589;-47
2020/12/01 10:59:28;;;;;;;25.60;18.37;;;;;;;5.58;66.98;102232.02;1742206;82;21141;-47
2020/12/01 11:01:56;;;;;;;23.32;17.05;;;;;;;5.58;67.21;102232.91;1732202;82;21156;-47
2020/12/01 11:04:25;;;;;;;24.63;17.23;;;;;;;5.63;67.12;102230.39;1744540;82;21144;-47
2020/12/01 11:06:53;;;;;;;23.62;16.52;;;;;;;5.65;66.92;102232.59;1733661;82;21144;-47
2020/12/01 11:09:23;;;;;;;21.60;15.72;;;;;;;5.65;66.87;102227.02;1741253;82;21120;-47
2020/12/01 11:11:52;;;;;;;17.73;14.18;;;;;;;5.65;66.78;102228.72;1738067;82;21192;-47
2020/12/01 11:14:20;;;;;;;29.75;18.40;;;;;;;5.64;66.88;102232.16;1736235;82;21144;-47
2020/12/01 11:16:48;;;;;;;24.52;17.07;;;;;;;5.67;66.99;102227.05;1737379;82;21550;-47
2020/12/01 11:19:16;;;;;;;25.40;15.32;;;;;;;5.68;66.92;102221.05;1721570;82;21153;-47
2020/12/01 11:21:45;;;;;;;21.30;14.58;;;;;;;5.71;67.03;102218.52;1727432;82;21201;-42
2020/12/01 11:24:13;;;;;;;21.95;14.78;;;;;;;5.72;67.01;102218.58;1725065;82;21570;-47
2020/12/01 11:26:42;;;;;;;25.45;16.67;;;;;;;5.73;66.95;102224.59;1726192;82;21161;-47
2020/12/01 11:29:10;;;;;;;24.00;17.20;;;;;;;5.74;67.01;102222.06;1716736;82;21165;-47
2020/12/01 11:31:43;;;;;;;27.87;17.80;;;;;;;5.78;66.90;102228.16;1723233;82;21153;-47
2020/12/01 11:34:12;;;;;;;23.02;16.15;;;;;;;5.79;66.75;102228.59;1715635;82;21661;-47
2020/12/01 11:36:40;;;;;;;24.15;15.93;;;;;;;5.78;66.63;102220.41;1728750;82;21122;-47
2020/12/01 11:39:12;;;;;;;22.85;15.93;;;;;;;5.75;66.78;102222.50;1716449;82;21169;-47
2020/12/01 11:41:40;;;;;;;;;;;;;;;5.76;66.92;102216.51;1732709;82;21165;-44
2020/12/01 11:44:08;;;;;;;20.88;14.95;;;;;;;5.77;66.99;102216.06;1725835;82;20135;-47
2020/12/01 11:46:36;;;;;;;23.55;16.67;;;;;;;5.79;66.98;102219.55;1728186;82;21169;-47
2020/12/01 11:49:05;;;;;;;25.65;17.45;;;;;;;5.78;66.93;102215.23;1718843;82;21153;-47
2020/12/01 11:51:36;;;;;;;20.52;15.98;;;;;;;5.76;66.95;102212.63;1730870;82;21153;-47
2020/12/01 11:54:06;;;;;;;26.80;16.02;;;;;;;5.75;67.00;102209.99;1718839;82;21133;-47
2020/12/01 11:56:34;;;;;;;28.30;18.62;;;;;;;5.75;67.14;102209.99;1721800;82;21125;-47
2020/12/01 11:59:04;;;;;;;23.67;16.80;;;;;;;5.75;67.09;102209.99;1723249;82;21357;-46
2020/12/01 12:01:34;;;;;;;24.50;17.75;;;;;;;5.74;67.09;102205.69;1724021;82;21283;-47
2020/12/01 12:04:04;;;;;;;24.92;15.85;;;;;;;5.74;67.16;102218.60;1727844;81;21515;-47
2020/12/01 12:06:33;;;;;;;21.85;14.68;;;;;;;5.74;67.40;102213.44;1721197;82;21121;-46
2020/12/01 12:09:01;;;;;;;21.35;13.98;;;;;;;5.75;67.33;102208.70;1728076;82;21161;-46
2020/12/01 12:11:29;;;;;;;21.30;14.98;;;;;;;5.72;67.03;102204.38;1723774;82;21307;-47
2020/12/01 12:13:58;;;;;;;24.55;17.17;;;;;;;5.71;67.19;102203.02;1724976;82;21339;-46
2020/12/01 12:16:26;;;;;;;28.80;17.98;;;;;;;6.14;66.09;102210.83;1724568;81;21161;-46
2020/12/01 12:18:54;;;;;;;29.55;17.45;;;;;;;6.32;65.43;102206.03;1731358;81;21141;-46
2020/12/01 12:21:22;;;;;;;28.90;17.80;;;;;;;6.35;65.12;102203.48;1732525;82;21184;-46
2020/12/01 12:23:50;;;;;;;29.00;17.15;;;;;;;6.36;64.99;102202.66;1725036;81;21291;-47
2020/12/01 12:26:19;;;;;;;30.85;17.85;;;;;;;6.36;65.07;102202.66;1730918;82;21138;-46
2020/12/01 12:28:47;;;;;;;26.17;17.42;;;;;;;6.40;65.14;102201.00;1718768;82;21145;-46
2020/12/01 12:31:17;;;;;;;23.92;16.17;;;;;;;6.44;64.87;102193.73;1728434;82;21169;-46
2020/12/01 12:33:46;;;;;;;26.48;16.60;;;;;;;6.51;64.57;102193.86;1723967;82;21570;-47